Time;durP1;ratioP1;P1;durP2;ratioP2;P2;SDS_P1;SDS_P2;PMS_P1;PMS_P2;Temp;Humidity;BMP_temperature;BMP_pressure;BME280_temperature;BME280_humidity;BME280_pressure;Samples;Min_cycle;Max_cycle;Signal;HPM_P1;HPM_P2
2023/01/15 00:01:06;;;;;;;11.50;2.10;;;;;;;;;;5074264;28;20203;-86
2023/01/15 00:03:36;;;;;;;3.07;1.93;;;;;;;;;;5074748;28;20204;-87
2023/01/15 00:06:04;;;;;;;5.47;2.33;;;;;;;;;;5075321;28;20214;-86
2023/01/15 00:08:33;;;;;;;12.90;3.00;;;;;;;;;;5075084;28;20249;-86
2023/01/15 00:11:03;;;;;;;3.23;1.50;;;;;;;;;;5074495;28;20197;-85
2023/01/15 00:13:32;;;;;;;3.20;1.77;;;;;;;;;;5074192;28;20229;-85
2023/01/15 00:16:03;;;;;;;11.37;2.47;;;;;;;;;;5074164;28;20205;-86
2023/01/15 00:18:31;;;;;;;8.60;3.07;;;;;;;;;;5074416;28;20201;-85
2023/01/15 00:21:02;;;;;;;8.20;2.97;;;;;;;;;;5075089;28;20206;-86
2023/01/15 00:29:03;;;;;;;5.27;2.10;;;;;;;;;;5074236;28;20218;-86
2023/01/15 00:31:32;;;;;;;2.33;1.60;;;;;;;;;;5073587;28;20215;-85
2023/01/15 00:34:01;;;;;;;8.47;2.20;;;;;;;;;;5073980;28;20247;-86
2023/01/15 00:36:32;;;;;;;13.43;4.13;;;;;;;;;;5074563;28;20280;-86
2023/01/15 00:39:00;;;;;;;9.07;1.83;;;;;;;;;;5074981;28;20201;-86
2023/01/15 00:41:29;;;;;;;8.13;2.63;;;;;;;;;;5073647;28;20201;-86
2023/01/15 00:43:57;;;;;;;5.37;2.67;;;;;;;;;;5073448;28;20259;-85
2023/01/15 00:46:26;;;;;;;8.70;3.33;;;;;;;;;;5073440;28;20202;-85
2023/01/15 00:48:54;;;;;;;8.90;3.27;;;;;;;;;;5074420;28;20269;-86
2023/01/15 00:51:23;;;;;;;8.63;2.50;;;;;;;;;;5073644;28;20225;-86
2023/01/15 00:53:52;;;;;;;7.00;2.80;;;;;;;;;;5073688;28;20251;-86
2023/01/15 00:56:21;;;;;;;9.03;2.00;;;;;;;;;;5073506;28;20202;-86
2023/01/15 00:58:49;;;;;;;3.20;1.90;;;;;;;;;;5073596;28;20259;-86
2023/01/15 01:01:17;;;;;;;7.73;1.87;;;;;;;;;;5073306;28;20244;-86
2023/01/15 01:03:47;;;;;;;4.67;2.80;;;;;;;;;;5073393;28;20197;-86
2023/01/15 01:06:16;;;;;;;1.73;1.60;;;;;;;;;;5073161;28;20225;-86
2023/01/15 01:08:45;;;;;;;3.40;1.40;;;;;;;;;;5073351;28;20206;-86
2023/01/15 01:11:15;;;;;;;10.10;3.37;;;;;;;;;;5073212;28;20205;-86
2023/01/15 01:13:44;;;;;;;9.40;2.20;;;;;;;;;;5073173;28;20291;-86
2023/01/15 01:16:29;;;;;;;7.70;3.20;;;;;;;;;;5073385;28;20205;-86
2023/01/15 01:18:58;;;;;;;8.03;2.13;;;;;;;;;;5073081;28;20224;-86
2023/01/15 01:21:26;;;;;;;7.30;3.27;;;;;;;;;;5073172;28;20201;-86
2023/01/15 01:23:55;;;;;;;8.30;3.00;;;;;;;;;;5073001;28;20189;-85
2023/01/15 01:26:25;;;;;;;1.33;1.30;;;;;;;;;;5073140;28;20201;-86
2023/01/15 01:28:53;;;;;;;5.60;2.70;;;;;;;;;;5072934;28;20299;-86
2023/01/15 01:31:22;;;;;;;8.07;1.93;;;;;;;;;;5073027;28;20199;-86
2023/01/15 01:33:50;;;;;;;4.37;2.07;;;;;;;;;;5072708;28;20206;-86
2023/01/15 01:36:19;;;;;;;10.43;3.53;;;;;;;;;;5073322;28;20197;-86
2023/01/15 01:38:49;;;;;;;7.33;2.20;;;;;;;;;;5073751;28;20202;-86
2023/01/15 01:41:18;;;;;;;8.70;2.57;;;;;;;;;;5072901;28;20218;-86
2023/01/15 01:43:55;;;;;;;9.87;3.03;;;;;;;;;;5073887;28;20205;-86
2023/01/15 01:46:23;;;;;;;6.37;2.37;;;;;;;;;;5073943;28;20279;-86
2023/01/15 01:48:54;;;;;;;3.80;2.00;;;;;;;;;;5072616;28;20210;-86
2023/01/15 01:51:25;;;;;;;29.23;4.37;;;;;;;;;;5072428;28;20255;-86
2023/01/15 01:53:53;;;;;;;6.60;2.57;;;;;;;;;;5072957;28;20213;-86
2023/01/15 01:56:22;;;;;;;8.57;3.70;;;;;;;;;;5072841;28;20263;-86
2023/01/15 01:58:53;;;;;;;8.20;2.77;;;;;;;;;;5074947;28;20316;-86
2023/01/15 02:01:24;;;;;;;9.13;3.70;;;;;;;;;;5076713;28;20205;-86
2023/01/15 02:03:54;;;;;;;13.27;3.33;;;;;;;;;;5077659;28;20280;-86
2023/01/15 02:06:23;;;;;;;8.47;2.83;;;;;;;;;;5077724;28;20229;-86
2023/01/15 02:08:51;;;;;;;12.43;3.70;;;;;;;;;;5076432;28;20198;-86
2023/01/15 02:11:21;;;;;;;4.30;1.70;;;;;;;;;;5076734;28;20220;-86
2023/01/15 02:13:54;;;;;;;6.23;2.63;;;;;;;;;;5076383;28;20233;-86
2023/01/15 02:16:26;;;;;;;19.13;3.80;;;;;;;;;;5076343;28;20194;-86
2023/01/15 02:18:59;;;;;;;9.17;2.67;;;;;;;;;;5076302;28;20198;-86
2023/01/15 02:21:31;;;;;;;4.80;2.73;;;;;;;;;;5076386;28;20262;-86
2023/01/15 02:24:05;;;;;;;10.27;3.40;;;;;;;;;;5076358;28;20213;-85
2023/01/15 02:26:52;;;;;;;9.27;2.90;;;;;;;;;;5076404;28;20193;-86
2023/01/15 02:29:28;;;;;;;11.67;2.60;;;;;;;;;;5077240;28;20197;-86
2023/01/15 02:31:56;;;;;;;5.40;1.90;;;;;;;;;;5075822;28;20208;-86
2023/01/15 02:34:27;;;;;;;10.90;4.07;;;;;;;;;;5076026;28;20207;-86
2023/01/15 02:36:59;;;;;;;10.47;2.87;;;;;;;;;;5077473;28;20288;-86
2023/01/15 02:39:29;;;;;;;7.87;3.80;;;;;;;;;;5075650;28;20255;-86
2023/01/15 02:41:59;;;;;;;10.67;3.03;;;;;;;;;;5076107;28;20225;-86
2023/01/15 02:44:31;;;;;;;9.63;3.60;;;;;;;;;;5076730;28;20223;-86
2023/01/15 02:47:00;;;;;;;4.40;2.43;;;;;;;;;;5075912;28;20231;-85
2023/01/15 02:49:28;;;;;;;7.70;3.93;;;;;;;;;;5076851;28;20198;-86
2023/01/15 02:51:59;;;;;;;8.60;2.97;;;;;;;;;;5077015;28;20201;-86
2023/01/15 02:54:31;;;;;;;8.53;2.53;;;;;;;;;;5075828;28;20296;-86
2023/01/15 02:57:00;;;;;;;10.67;3.40;;;;;;;;;;5075579;28;20270;-85
2023/01/15 02:59:33;;;;;;;9.53;2.60;;;;;;;;;;5076411;28;20193;-86
2023/01/15 03:02:02;;;;;;;3.53;2.33;;;;;;;;;;5076473;28;20267;-85
2023/01/15 03:04:33;;;;;;;4.20;2.40;;;;;;;;;;5076408;28;20198;-86
2023/01/15 03:07:06;;;;;;;2.60;1.83;;;;;;;;;;5075497;28;20235;-86
2023/01/15 03:09:35;;;;;;;9.20;3.87;;;;;;;;;;5074029;28;20247;-86
2023/01/15 03:12:06;;;;;;;9.17;2.60;;;;;;;;;;5075174;28;20219;-86
2023/01/15 03:14:37;;;;;;;14.80;3.13;;;;;;;;;;5075228;28;20237;-86
2023/01/15 03:17:10;;;;;;;14.73;4.67;;;;;;;;;;5076480;28;20237;-86
2023/01/15 03:19:42;;;;;;;6.53;2.23;;;;;;;;;;5075158;28;20198;-86
2023/01/15 03:22:13;;;;;;;6.03;3.03;;;;;;;;;;5075234;28;20251;-86
2023/01/15 03:24:44;;;;;;;4.47;2.73;;;;;;;;;;5075998;28;20255;-85
2023/01/15 03:27:12;;;;;;;7.37;2.30;;;;;;;;;;5075043;28;20225;-86
2023/01/15 03:29:43;;;;;;;4.30;2.00;;;;;;;;;;5074970;28;20197;-86
2023/01/15 03:32:12;;;;;;;16.63;3.23;;;;;;;;;;5075164;28;20206;-86
2023/01/15 03:34:43;;;;;;;6.30;2.17;;;;;;;;;;5075923;28;20223;-86
2023/01/15 03:37:11;;;;;;;6.13;3.13;;;;;;;;;;5075009;28;20243;-86
2023/01/15 03:39:40;;;;;;;3.20;1.97;;;;;;;;;;5075109;28;20288;-86
2023/01/15 03:42:14;;;;;;;4.57;2.27;;;;;;;;;;5075914;28;20220;-86
2023/01/15 03:44:47;;;;;;;12.57;3.80;;;;;;;;;;5074716;28;20205;-86
2023/01/15 03:47:21;;;;;;;11.97;4.20;;;;;;;;;;5074768;28;20201;-86
2023/01/15 03:49:53;;;;;;;5.07;2.07;;;;;;;;;;5075938;28;20205;-86
2023/01/15 03:52:25;;;;;;;7.17;2.77;;;;;;;;;;5074614;28;20220;-86
2023/01/15 03:54:56;;;;;;;7.00;2.30;;;;;;;;;;5074661;28;20202;-86
2023/01/15 03:57:30;;;;;;;6.60;2.73;;;;;;;;;;5074748;28;20209;-86
2023/01/15 04:00:01;;;;;;;9.03;2.60;;;;;;;;;;5074266;28;20227;-85
2023/01/15 04:02:30;;;;;;;10.37;3.53;;;;;;;;;;5074455;28;20245;-86
2023/01/15 04:04:59;;;;;;;3.47;2.03;;;;;;;;;;5075270;28;20255;-86
2023/01/15 04:07:28;;;;;;;8.80;4.03;;;;;;;;;;5074171;28;20240;-85
2023/01/15 04:09:56;;;;;;;8.93;2.67;;;;;;;;;;5074053;28;20190;-86
2023/01/15 04:12:26;;;;;;;6.57;1.90;;;;;;;;;;5074379;28;20220;-86
2023/01/15 04:14:55;;;;;;;23.80;2.97;;;;;;;;;;5074098;28;20265;-86
2023/01/15 04:17:24;;;;;;;8.60;2.33;;;;;;;;;;5074096;28;20194;-85
2023/01/15 04:19:53;;;;;;;7.00;2.03;;;;;;;;;;5075103;28;20205;-86
2023/01/15 04:22:21;;;;;;;8.57;2.07;;;;;;;;;;5074896;28;20186;-86
2023/01/15 04:24:49;;;;;;;6.97;2.10;;;;;;;;;;5074257;28;20265;-86
2023/01/15 04:27:18;;;;;;;5.80;2.50;;;;;;;;;;5074025;28;20247;-86
2023/01/15 04:29:46;;;;;;;9.83;3.13;;;;;;;;;;5073801;28;20278;-86
2023/01/15 04:32:15;;;;;;;8.73;2.40;;;;;;;;;;5073590;28;20214;-86
2023/01/15 04:34:44;;;;;;;7.07;2.97;;;;;;;;;;5074916;28;20320;-85
2023/01/15 04:37:13;;;;;;;9.67;4.00;;;;;;;;;;5073361;28;20201;-86
2023/01/15 04:39:41;;;;;;;5.13;1.77;;;;;;;;;;5074688;28;20249;-86
2023/01/15 04:44:56;;;;;;;8.33;3.00;;;;;;;;;;5074681;28;20260;-86
2023/01/15 04:47:25;;;;;;;6.17;2.60;;;;;;;;;;5074003;28;20254;-86
2023/01/15 04:49:54;;;;;;;5.83;2.67;;;;;;;;;;5073427;28;20198;-86
2023/01/15 04:52:23;;;;;;;13.60;3.47;;;;;;;;;;5073615;28;20218;-86
2023/01/15 04:54:51;;;;;;;6.63;3.30;;;;;;;;;;5073582;28;20225;-86
2023/01/15 04:57:19;;;;;;;7.83;2.70;;;;;;;;;;5073109;28;20271;-86
2023/01/15 04:59:48;;;;;;;8.77;3.30;;;;;;;;;;5073348;28;20205;-86
2023/01/15 05:02:16;;;;;;;10.03;4.40;;;;;;;;;;5073523;28;20189;-86
2023/01/15 05:04:44;;;;;;;4.63;2.37;;;;;;;;;;5074332;28;20201;-86
2023/01/15 05:07:14;;;;;;;5.87;2.10;;;;;;;;;;5073318;28;20189;-86
2023/01/15 05:09:43;;;;;;;2.67;1.50;;;;;;;;;;5074103;28;20213;-86
2023/01/15 05:12:11;;;;;;;4.50;1.80;;;;;;;;;;5072970;28;20278;-86
2023/01/15 05:14:39;;;;;;;6.20;2.33;;;;;;;;;;5073035;28;20233;-86
2023/01/15 05:17:08;;;;;;;8.70;2.97;;;;;;;;;;5073288;28;20225;-86
2023/01/15 05:19:36;;;;;;;11.80;1.97;;;;;;;;;;5072949;28;20202;-86
2023/01/15 05:22:07;;;;;;;5.87;1.90;;;;;;;;;;5072987;28;20186;-86
2023/01/15 05:24:38;;;;;;;6.40;3.03;;;;;;;;;;5072917;28;20241;-85
2023/01/15 05:27:07;;;;;;;11.10;3.57;;;;;;;;;;5074014;28;20281;-86
2023/01/15 05:29:35;;;;;;;6.17;2.63;;;;;;;;;;5072707;28;20198;-86
2023/01/15 05:32:03;;;;;;;2.37;1.63;;;;;;;;;;5072227;28;20273;-86
2023/01/15 05:34:32;;;;;;;9.03;2.47;;;;;;;;;;5072295;28;20236;-85
2023/01/15 05:37:00;;;;;;;3.77;2.13;;;;;;;;;;5072811;28;20236;-85
2023/01/15 05:39:28;;;;;;;7.77;3.37;;;;;;;;;;5073050;28;20225;-86
2023/01/15 05:41:58;;;;;;;4.33;1.70;;;;;;;;;;5072914;28;20189;-86
2023/01/15 05:44:27;;;;;;;4.07;2.30;;;;;;;;;;5072862;28;20206;-85
2023/01/15 05:46:57;;;;;;;4.83;1.47;;;;;;;;;;5073071;28;20296;-85
2023/01/15 05:49:26;;;;;;;5.27;2.93;;;;;;;;;;5073703;28;20246;-86
2023/01/15 05:51:55;;;;;;;5.70;2.73;;;;;;;;;;5072889;28;20225;-86
2023/01/15 05:54:24;;;;;;;11.67;2.70;;;;;;;;;;5072628;28;20225;-85
2023/01/15 05:56:52;;;;;;;10.03;1.87;;;;;;;;;;5073942;28;20197;-86
2023/01/15 05:59:23;;;;;;;10.37;2.80;;;;;;;;;;5072721;28;20220;-86
2023/01/15 06:01:52;;;;;;;6.00;2.50;;;;;;;;;;5072397;28;20201;-86
2023/01/15 06:04:21;;;;;;;5.07;2.80;;;;;;;;;;5072972;28;20205;-85
2023/01/15 06:06:50;;;;;;;6.17;3.00;;;;;;;;;;5072435;28;20282;-85
2023/01/15 06:09:19;;;;;;;2.43;1.93;;;;;;;;;;5072723;28;20212;-85
2023/01/15 06:11:47;;;;;;;7.83;3.20;;;;;;;;;;5072325;28;20205;-86
2023/01/15 06:14:15;;;;;;;3.97;1.83;;;;;;;;;;5072355;28;20233;-86
2023/01/15 06:16:45;;;;;;;3.80;1.87;;;;;;;;;;5072929;28;20200;-85
2023/01/15 06:19:14;;;;;;;5.70;2.77;;;;;;;;;;5072266;28;20204;-86
2023/01/15 06:21:43;;;;;;;10.43;3.53;;;;;;;;;;5072346;28;20190;-86
2023/01/15 06:24:11;;;;;;;10.27;2.77;;;;;;;;;;5078966;28;20205;-86
2023/01/15 06:26:40;;;;;;;6.87;3.67;;;;;;;;;;5076145;28;20290;-86
2023/01/15 06:29:08;;;;;;;6.00;2.97;;;;;;;;;;5072357;28;20227;-86
2023/01/15 06:31:36;;;;;;;10.40;3.53;;;;;;;;;;5071775;28;20321;-86
2023/01/15 06:34:06;;;;;;;10.93;2.73;;;;;;;;;;5073341;28;20198;-86
2023/01/15 06:36:35;;;;;;;7.00;2.63;;;;;;;;;;5072293;28;20270;-85
2023/01/15 06:39:03;;;;;;;4.53;2.60;;;;;;;;;;5072329;28;20235;-85
2023/01/15 06:47:21;;;;;;;6.70;2.20;;;;;;;;;;5075772;28;20223;-85
2023/01/15 06:49:53;;;;;;;11.73;4.10;;;;;;;;;;5075857;28;20201;-86
2023/01/15 06:52:21;;;;;;;4.10;2.27;;;;;;;;;;5075837;28;20350;-86
2023/01/15 06:54:50;;;;;;;10.37;3.20;;;;;;;;;;5075922;28;20279;-86
2023/01/15 06:57:18;;;;;;;6.37;3.23;;;;;;;;;;5075842;28;20201;-86
2023/01/15 06:59:47;;;;;;;2.50;1.50;;;;;;;;;;5075760;28;20236;-85
2023/01/15 07:02:16;;;;;;;9.83;2.37;;;;;;;;;;5075416;28;20198;-86
2023/01/15 07:04:45;;;;;;;8.27;3.13;;;;;;;;;;5075522;28;20296;-86
2023/01/15 07:07:15;;;;;;;4.40;2.67;;;;;;;;;;5075713;28;20292;-86
2023/01/15 07:09:43;;;;;;;8.00;3.33;;;;;;;;;;5076420;28;20281;-86
2023/01/15 07:12:11;;;;;;;8.50;2.80;;;;;;;;;;5075462;28;20220;-85
2023/01/15 07:14:40;;;;;;;7.67;2.03;;;;;;;;;;5075348;28;20237;-86
2023/01/15 07:17:08;;;;;;;9.43;4.37;;;;;;;;;;5075349;28;20193;-85
2023/01/15 07:19:37;;;;;;;10.23;3.10;;;;;;;;;;5076611;28;20247;-85
2023/01/15 07:22:05;;;;;;;8.00;2.17;;;;;;;;;;5076355;28;20243;-86
2023/01/15 07:24:35;;;;;;;5.20;2.50;;;;;;;;;;5074950;28;20292;-86
2023/01/15 07:27:03;;;;;;;7.47;2.60;;;;;;;;;;5075188;28;20233;-86
2023/01/15 07:29:32;;;;;;;6.20;2.57;;;;;;;;;;5076490;28;20243;-85
2023/01/15 07:32:00;;;;;;;9.47;3.03;;;;;;;;;;5075838;28;20288;-86
2023/01/15 07:34:28;;;;;;;8.00;2.57;;;;;;;;;;5074872;28;20205;-86
2023/01/15 07:36:57;;;;;;;6.80;2.50;;;;;;;;;;5075210;28;20198;-86
2023/01/15 07:39:25;;;;;;;9.93;3.20;;;;;;;;;;5076265;28;20243;-86
2023/01/15 07:50:14;;;;;;;10.70;3.10;;;;;;;;;;5074749;28;20197;-86
2023/01/15 07:52:43;;;;;;;7.07;1.53;;;;;;;;;;5074723;28;20221;-85
2023/01/15 07:55:12;;;;;;;10.90;3.57;;;;;;;;;;5074468;28;20233;-86
2023/01/15 07:57:42;;;;;;;10.03;2.50;;;;;;;;;;5074299;28;20202;-86
2023/01/15 08:00:11;;;;;;;10.27;3.17;;;;;;;;;;5075571;28;20225;-86
2023/01/15 08:02:40;;;;;;;17.40;5.27;;;;;;;;;;5074607;28;20190;-86
2023/01/15 08:05:10;;;;;;;7.73;3.17;;;;;;;;;;5074316;28;20279;-85
2023/01/15 08:07:39;;;;;;;10.97;3.70;;;;;;;;;;5074147;28;20206;-86
2023/01/15 08:10:08;;;;;;;2.70;1.77;;;;;;;;;;5074423;28;20206;-86
2023/01/15 08:15:26;;;;;;;1.87;1.50;;;;;;;;;;5073621;28;20233;-86
2023/01/15 08:17:54;;;;;;;7.37;2.90;;;;;;;;;;5074348;28;20197;-85
2023/01/15 08:20:24;;;;;;;8.50;3.63;;;;;;;;;;5074342;28;20228;-85
2023/01/15 08:22:53;;;;;;;9.87;3.33;;;;;;;;;;5074514;28;20195;-86
2023/01/15 08:25:22;;;;;;;6.00;3.30;;;;;;;;;;5075259;28;20259;-86
2023/01/15 08:27:50;;;;;;;6.73;2.50;;;;;;;;;;5073988;28;20251;-86
2023/01/15 08:30:20;;;;;;;10.13;3.70;;;;;;;;;;5075069;28;20198;-86
2023/01/15 08:32:50;;;;;;;7.07;2.60;;;;;;;;;;5073608;28;20257;-86
2023/01/15 08:35:18;;;;;;;7.40;3.07;;;;;;;;;;5073877;28;20212;-86
2023/01/15 08:37:47;;;;;;;8.67;3.13;;;;;;;;;;5074078;28;20240;-86
2023/01/15 08:40:15;;;;;;;7.20;2.37;;;;;;;;;;5075029;28;20247;-86
2023/01/15 08:42:43;;;;;;;12.80;3.00;;;;;;;;;;5073696;28;20296;-86
2023/01/15 08:45:13;;;;;;;18.87;3.27;;;;;;;;;;5073630;28;20508;-86
2023/01/15 08:47:41;;;;;;;11.83;5.00;;;;;;;;;;5073630;28;20220;-86
2023/01/15 08:50:11;;;;;;;10.93;3.23;;;;;;;;;;5073521;28;20201;-86
2023/01/15 08:52:40;;;;;;;5.13;2.77;;;;;;;;;;5074305;28;20197;-86
2023/01/15 08:55:09;;;;;;;11.57;5.23;;;;;;;;;;5075014;28;20207;-85
2023/01/15 08:57:37;;;;;;;9.70;4.17;;;;;;;;;;5073532;28;20238;-86
2023/01/15 09:00:06;;;;;;;7.10;3.53;;;;;;;;;;5073116;28;20208;-86
2023/01/15 09:02:35;;;;;;;5.33;3.57;;;;;;;;;;5074466;28;20197;-86
2023/01/15 09:05:03;;;;;;;7.80;3.67;;;;;;;;;;5074206;28;20285;-85
2023/01/15 09:07:34;;;;;;;10.20;3.13;;;;;;;;;;5072542;28;20193;-86
2023/01/15 09:10:03;;;;;;;6.73;3.43;;;;;;;;;;5074659;28;20201;-85
2023/01/15 09:12:31;;;;;;;13.97;3.97;;;;;;;;;;5072770;28;20201;-86
2023/01/15 09:15:01;;;;;;;11.13;4.50;;;;;;;;;;5073885;28;20237;-86
2023/01/15 09:17:31;;;;;;;11.63;4.93;;;;;;;;;;5072991;28;20198;-86
2023/01/15 09:20:01;;;;;;;8.50;4.30;;;;;;;;;;5073371;28;20244;-86
2023/01/15 09:22:30;;;;;;;12.83;3.73;;;;;;;;;;5074071;28;20197;-86
2023/01/15 09:25:00;;;;;;;10.40;4.50;;;;;;;;;;5073155;28;20194;-86
2023/01/15 09:27:29;;;;;;;5.60;2.90;;;;;;;;;;5074219;28;20193;-86
2023/01/15 09:29:57;;;;;;;8.23;2.43;;;;;;;;;;5074288;28;20201;-85
2023/01/15 09:32:25;;;;;;;8.33;3.43;;;;;;;;;;5073018;28;20197;-86
2023/01/15 09:34:54;;;;;;;11.13;3.23;;;;;;;;;;5073083;28;20222;-86
2023/01/15 09:37:22;;;;;;;7.23;3.50;;;;;;;;;;5073205;28;20205;-86
2023/01/15 09:39:51;;;;;;;5.87;2.10;;;;;;;;;;5074097;28;20201;-86
2023/01/15 09:42:28;;;;;;;16.13;4.10;;;;;;;;;;5073082;28;20209;-85
2023/01/15 09:45:06;;;;;;;14.40;4.73;;;;;;;;;;5074146;28;20194;-86
2023/01/15 09:47:36;;;;;;;13.57;2.53;;;;;;;;;;5073803;28;20208;-86
2023/01/15 09:50:17;;;;;;;12.30;4.33;;;;;;;;;;5073931;28;20201;-86
2023/01/15 09:52:56;;;;;;;10.10;3.60;;;;;;;;;;5072820;28;20212;-86
2023/01/15 09:55:26;;;;;;;8.40;2.93;;;;;;;;;;5073614;28;20221;-86
2023/01/15 09:57:57;;;;;;;6.20;2.77;;;;;;;;;;5073722;28;20206;-86
2023/01/15 10:00:27;;;;;;;6.60;2.50;;;;;;;;;;5072766;28;20296;-86
2023/01/15 10:02:58;;;;;;;11.20;3.73;;;;;;;;;;5072560;28;20209;-86
2023/01/15 10:05:29;;;;;;;12.87;2.83;;;;;;;;;;5072519;28;20217;-86
2023/01/15 10:07:59;;;;;;;10.13;4.47;;;;;;;;;;5073910;28;20202;-86
2023/01/15 10:10:32;;;;;;;8.40;3.40;;;;;;;;;;5072716;28;20194;-85
2023/01/15 10:13:07;;;;;;;5.97;2.87;;;;;;;;;;5072699;28;20201;-86
2023/01/15 10:15:37;;;;;;;9.20;3.37;;;;;;;;;;5072081;28;20260;-86
2023/01/15 10:18:07;;;;;;;5.47;1.73;;;;;;;;;;5073598;28;20209;-86
2023/01/15 10:20:42;;;;;;;12.37;3.23;;;;;;;;;;5076238;28;20232;-86
2023/01/15 10:23:16;;;;;;;9.37;2.80;;;;;;;;;;5076499;28;20209;-86
2023/01/15 10:25:48;;;;;;;11.90;4.13;;;;;;;;;;5077350;28;20202;-85
2023/01/15 10:28:20;;;;;;;7.90;4.30;;;;;;;;;;5077201;28;20210;-85
2023/01/15 10:30:52;;;;;;;10.73;2.87;;;;;;;;;;5076554;28;20220;-86
2023/01/15 10:33:31;;;;;;;5.27;2.43;;;;;;;;;;5076495;28;20197;-85
2023/01/15 10:36:02;;;;;;;10.80;2.77;;;;;;;;;;5076063;28;20221;-86
2023/01/15 10:38:33;;;;;;;10.47;3.93;;;;;;;;;;5076929;28;20225;-86
2023/01/15 10:41:20;;;;;;;11.57;3.53;;;;;;;;;;5076289;28;20206;-86
2023/01/15 10:43:51;;;;;;;11.70;3.37;;;;;;;;;;5076931;28;20239;-86
2023/01/15 10:46:21;;;;;;;9.33;2.63;;;;;;;;;;5076163;28;20201;-86
2023/01/15 10:48:50;;;;;;;10.83;3.83;;;;;;;;;;5076686;28;20205;-86
2023/01/15 10:51:21;;;;;;;6.60;2.97;;;;;;;;;;5076167;28;20229;-86
2023/01/15 10:53:52;;;;;;;13.53;4.30;;;;;;;;;;5075906;28;20202;-85
2023/01/15 10:56:25;;;;;;;10.37;4.03;;;;;;;;;;5075989;28;20217;-86
2023/01/15 10:58:57;;;;;;;6.83;3.50;;;;;;;;;;5076521;28;20237;-86
2023/01/15 11:01:27;;;;;;;15.23;3.87;;;;;;;;;;5075262;28;20198;-86
2023/01/15 11:03:55;;;;;;;9.17;3.57;;;;;;;;;;5075872;28;20229;-85
2023/01/15 11:06:25;;;;;;;11.63;5.17;;;;;;;;;;5075894;28;20228;-86
2023/01/15 11:08:54;;;;;;;11.57;2.70;;;;;;;;;;5075641;28;20194;-86
2023/01/15 11:20:17;;;;;;;8.03;2.40;;;;;;;;;;5076236;28;20207;-85
2023/01/15 11:22:45;;;;;;;12.70;3.80;;;;;;;;;;5075019;28;20198;-85
2023/01/15 11:25:14;;;;;;;13.33;4.47;;;;;;;;;;5075007;28;20210;-85
2023/01/15 11:27:43;;;;;;;11.87;3.93;;;;;;;;;;5075449;28;20301;-85
2023/01/15 11:30:26;;;;;;;19.87;4.57;;;;;;;;;;5074421;28;20221;-86
2023/01/15 11:33:00;;;;;;;17.93;5.43;;;;;;;;;;5075958;28;20198;-85
2023/01/15 11:35:28;;;;;;;13.90;3.87;;;;;;;;;;5074988;28;20268;-85
2023/01/15 11:38:03;;;;;;;7.87;2.80;;;;;;;;;;5076341;28;20264;-83
2023/01/15 11:40:31;;;;;;;9.97;3.97;;;;;;;;;;5075059;28;20221;-84
2023/01/15 11:51:31;;;;;;;12.10;4.97;;;;;;;;;;5074879;28;20202;-84
2023/01/15 11:54:01;;;;;;;7.10;3.33;;;;;;;;;;5075632;28;20203;-84
2023/01/15 11:56:31;;;;;;;8.73;3.53;;;;;;;;;;5075810;28;20226;-84
2023/01/15 11:59:01;;;;;;;10.83;4.20;;;;;;;;;;5074338;28;20198;-85
2023/01/15 12:01:31;;;;;;;10.83;4.10;;;;;;;;;;5077983;28;20262;-88
2023/01/15 12:04:01;;;;;;;11.27;3.97;;;;;;;;;;5081573;28;20225;-88
2023/01/15 12:06:30;;;;;;;14.27;3.77;;;;;;;;;;5074310;28;20232;-82
2023/01/15 12:09:04;;;;;;;10.30;3.97;;;;;;;;;;5074075;28;20253;-84
2023/01/15 12:11:43;;;;;;;13.17;3.83;;;;;;;;;;5075064;28;20190;-84
2023/01/15 12:14:29;;;;;;;11.67;4.30;;;;;;;;;;5074049;28;20273;-86
2023/01/15 12:17:03;;;;;;;11.13;3.03;;;;;;;;;;5075689;28;20192;-83
2023/01/15 12:19:36;;;;;;;6.40;3.00;;;;;;;;;;5075068;28;20232;-84
2023/01/15 12:22:09;;;;;;;25.07;5.30;;;;;;;;;;5073945;28;20198;-84
2023/01/15 12:24:42;;;;;;;5.00;2.87;;;;;;;;;;5075035;28;20199;-84
2023/01/15 12:27:17;;;;;;;9.83;2.90;;;;;;;;;;5073675;28;20245;-84
2023/01/15 12:29:46;;;;;;;9.67;4.10;;;;;;;;;;5074931;28;20202;-84
2023/01/15 12:32:17;;;;;;;4.73;2.53;;;;;;;;;;5073547;28;20251;-83
2023/01/15 12:34:50;;;;;;;7.70;3.40;;;;;;;;;;5073246;28;20270;-84
2023/01/15 12:37:23;;;;;;;16.80;4.90;;;;;;;;;;5074315;28;20202;-84
2023/01/15 12:39:53;;;;;;;12.00;3.87;;;;;;;;;;5074559;28;20210;-82
2023/01/15 12:45:11;;;;;;;10.40;3.37;;;;;;;;;;5073229;28;20194;-82
2023/01/15 12:47:41;;;;;;;14.37;3.50;;;;;;;;;;5073474;28;20214;-83
2023/01/15 12:50:20;;;;;;;15.27;2.83;;;;;;;;;;5073614;28;20297;-85
2023/01/15 12:52:49;;;;;;;6.07;2.90;;;;;;;;;;5073522;28;20190;-86
2023/01/15 12:55:20;;;;;;;10.87;3.50;;;;;;;;;;5074693;28;20218;-88
2023/01/15 12:57:51;;;;;;;11.87;3.30;;;;;;;;;;5074373;28;20259;-89
2023/01/15 13:00:22;;;;;;;9.17;4.17;;;;;;;;;;5075016;28;20206;-88
2023/01/15 13:03:06;;;;;;;14.83;4.50;;;;;;;;;;5074942;28;20238;-89
2023/01/15 13:05:38;;;;;;;11.00;3.37;;;;;;;;;;5074969;28;20304;-88
2023/01/15 13:08:11;;;;;;;6.77;3.20;;;;;;;;;;5074343;28;20253;-88
2023/01/15 13:10:41;;;;;;;13.80;3.23;;;;;;;;;;5075291;28;20222;-88
2023/01/15 13:13:15;;;;;;;9.23;2.87;;;;;;;;;;5074572;28;20194;-88
2023/01/15 13:15:47;;;;;;;13.50;6.57;;;;;;;;;;5073417;28;20252;-88
2023/01/15 13:18:19;;;;;;;8.67;2.43;;;;;;;;;;5073555;28;20193;-88
2023/01/15 13:20:50;;;;;;;15.33;5.50;;;;;;;;;;5073386;28;20201;-89
2023/01/15 13:23:24;;;;;;;13.60;6.07;;;;;;;;;;5073740;28;20237;-89
2023/01/15 13:26:01;;;;;;;10.50;2.87;;;;;;;;;;5073477;28;20242;-89
2023/01/15 13:28:39;;;;;;;8.87;3.23;;;;;;;;;;5074406;28;20194;-89
2023/01/15 13:31:12;;;;;;;9.93;4.33;;;;;;;;;;5073045;28;20231;-89
2023/01/15 13:33:43;;;;;;;15.10;4.10;;;;;;;;;;5073170;28;20201;-88
2023/01/15 13:36:15;;;;;;;14.80;5.77;;;;;;;;;;5074029;28;20260;-88
2023/01/15 13:38:45;;;;;;;13.57;3.40;;;;;;;;;;5073687;28;20201;-86
2023/01/15 13:42:30;;;;;;;8.33;2.97;;;;;;;;;;5076494;28;20444;-86
2023/01/15 13:44:05;;;;;;;15.90;4.47;;;;;;;;;;5076736;28;20205;-86
2023/01/15 13:46:33;;;;;;;10.13;4.63;;;;;;;;;;5076846;28;20200;-86
2023/01/15 13:49:04;;;;;;;5.27;2.30;;;;;;;;;;5074942;28;20205;-86
2023/01/15 13:51:37;;;;;;;18.30;4.77;;;;;;;;;;5075255;28;20251;-86
2023/01/15 13:54:12;;;;;;;18.43;6.00;;;;;;;;;;5074752;28;20255;-86
2023/01/15 13:56:40;;;;;;;11.80;3.30;;;;;;;;;;5077370;28;20220;-86
2023/01/15 13:59:23;;;;;;;11.47;3.37;;;;;;;;;;5077790;28;20197;-86
2023/01/15 14:01:52;;;;;;;9.40;2.43;;;;;;;;;;5077873;28;20197;-86
2023/01/15 14:04:33;;;;;;;15.17;5.20;;;;;;;;;;5077217;28;20197;-86
2023/01/15 14:07:03;;;;;;;5.30;2.40;;;;;;;;;;5077530;28;20231;-86
2023/01/15 14:09:34;;;;;;;14.13;4.00;;;;;;;;;;5078610;28;20227;-86
2023/01/15 14:12:11;;;;;;;7.07;2.40;;;;;;;;;;5079089;28;20194;-86
2023/01/15 14:14:52;;;;;;;3.20;1.87;;;;;;;;;;5077949;28;20233;-86
2023/01/15 14:17:38;;;;;;;13.70;2.53;;;;;;;;;;5078889;28;20221;-86
2023/01/15 14:20:24;;;;;;;7.07;2.83;;;;;;;;;;5078622;28;20227;-86
2023/01/15 14:22:59;;;;;;;10.20;3.30;;;;;;;;;;5078364;28;20259;-86
2023/01/15 14:25:32;;;;;;;11.40;3.13;;;;;;;;;;5077229;28;20219;-86
2023/01/15 14:28:08;;;;;;;5.07;4.60;;;;;;;;;;5077104;28;20203;-86
2023/01/15 14:30:58;;;;;;;9.70;3.00;;;;;;;;;;5076901;28;20206;-86
2023/01/15 14:33:31;;;;;;;4.43;2.37;;;;;;;;;;5076825;28;20255;-86
2023/01/15 14:36:10;;;;;;;10.07;2.90;;;;;;;;;;5076486;28;20218;-86
2023/01/15 14:38:46;;;;;;;4.00;1.97;;;;;;;;;;5076582;28;20197;-86
2023/01/15 14:41:14;;;;;;;5.27;2.30;;;;;;;;;;5076752;28;20239;-85
2023/01/15 14:43:47;;;;;;;5.03;1.97;;;;;;;;;;5076755;28;20292;-85
2023/01/15 14:46:23;;;;;;;7.73;3.20;;;;;;;;;;5076365;28;20217;-86
2023/01/15 14:48:51;;;;;;;5.30;2.93;;;;;;;;;;5076555;28;20247;-86
2023/01/15 14:51:23;;;;;;;7.23;2.97;;;;;;;;;;5076169;28;20197;-86
2023/01/15 14:53:54;;;;;;;16.13;3.23;;;;;;;;;;5076004;28;20347;-85
2023/01/15 14:56:24;;;;;;;13.00;2.60;;;;;;;;;;5076733;28;20275;-86
2023/01/15 14:58:56;;;;;;;5.03;1.87;;;;;;;;;;5076877;28;20193;-86
2023/01/15 15:01:36;;;;;;;4.17;2.03;;;;;;;;;;5075610;28;20193;-86
2023/01/15 15:04:12;;;;;;;7.17;3.27;;;;;;;;;;5076902;28;20228;-86
2023/01/15 15:06:47;;;;;;;5.60;2.00;;;;;;;;;;5075413;28;20213;-86
2023/01/15 15:09:22;;;;;;;6.67;2.97;;;;;;;;;;5076912;28;20193;-86
2023/01/15 15:14:39;;;;;;;1.50;1.40;;;;;;;;;;5075258;28;20257;-86
2023/01/15 15:17:14;;;;;;;9.13;3.10;;;;;;;;;;5076333;28;20205;-86
2023/01/15 15:19:45;;;;;;;10.67;3.87;;;;;;;;;;5075450;28;20215;-86
2023/01/15 15:22:16;;;;;;;7.10;2.57;;;;;;;;;;5075667;28;20201;-86
2023/01/15 15:24:47;;;;;;;18.07;4.03;;;;;;;;;;5075758;28;20205;-87
2023/01/15 15:27:16;;;;;;;12.83;2.70;;;;;;;;;;5075488;28;20217;-87
2023/01/15 15:29:45;;;;;;;7.03;2.97;;;;;;;;;;5076500;28;20197;-87
2023/01/15 15:32:16;;;;;;;13.77;2.67;;;;;;;;;;5075484;28;20307;-87
2023/01/15 15:34:49;;;;;;;3.37;1.47;;;;;;;;;;5075272;28;20208;-87
2023/01/15 15:37:18;;;;;;;6.07;2.07;;;;;;;;;;5074896;28;20229;-87
2023/01/15 15:39:52;;;;;;;5.57;2.20;;;;;;;;;;5076152;28;20206;-87
2023/01/15 15:50:57;;;;;;;14.57;3.83;;;;;;;;;;5075051;28;20198;-87
2023/01/15 15:53:25;;;;;;;2.47;1.63;;;;;;;;;;5074834;28;20271;-87
2023/01/15 15:55:56;;;;;;;3.60;2.27;;;;;;;;;;5075064;28;20239;-88